createdAt,value
2023-05-10T00:02:04.575Z,13.10
2023-05-10T00:04:33.803Z,13.20
2023-05-10T00:07:02.457Z,13.20
2023-05-10T00:09:29.475Z,13.10
2023-05-10T00:11:56.637Z,13.10
2023-05-10T00:14:23.600Z,13.10
2023-05-10T00:16:50.693Z,13.00
2023-05-10T00:19:17.858Z,13.00
2023-05-10T00:21:47.978Z,13.10
2023-05-10T00:24:14.978Z,13.00
2023-05-10T00:26:43.733Z,13.00
2023-05-10T00:29:10.737Z,13.10
2023-05-10T00:31:37.787Z,13.10
2023-05-10T00:34:06.085Z,13.10
2023-05-10T00:36:37.226Z,13.10
2023-05-10T00:39:05.382Z,13.20
2023-05-10T00:41:33.772Z,13.10
2023-05-10T00:44:03.144Z,13.10
2023-05-10T00:46:31.119Z,13.00
2023-05-10T00:49:00.958Z,13.00
2023-05-10T00:51:28.434Z,13.00
2023-05-10T00:53:57.894Z,13.00
2023-05-10T00:56:26.683Z,13.00
2023-05-10T00:58:54.327Z,13.00
2023-05-10T01:01:24.059Z,12.90
2023-05-10T01:03:53.370Z,13.00
2023-05-10T01:06:21.220Z,13.00
2023-05-10T01:08:48.440Z,13.10
2023-05-10T01:11:16.224Z,13.10
2023-05-10T01:13:48.569Z,13.10
2023-05-10T01:16:18.139Z,13.20
2023-05-10T01:18:46.130Z,13.30
2023-05-10T01:21:35.516Z,13.40
2023-05-10T01:24:28.411Z,13.30
2023-05-10T01:27:02.909Z,13.40
2023-05-10T01:30:15.897Z,13.30
2023-05-10T01:32:44.132Z,13.40
2023-05-10T01:35:21.491Z,13.20
2023-05-10T01:38:00.962Z,13.20
2023-05-10T01:40:45.200Z,13.20
2023-05-10T01:43:20.539Z,13.20
2023-05-10T01:45:50.813Z,13.10
2023-05-10T01:48:20.944Z,13.10
2023-05-10T01:50:50.844Z,13.00
2023-05-10T01:53:21.427Z,13.20
2023-05-10T01:55:52.066Z,13.20
2023-05-10T01:58:29.352Z,13.20
2023-05-10T02:01:01.907Z,13.30
2023-05-10T02:03:29.442Z,13.30
2023-05-10T02:05:58.772Z,13.30
2023-05-10T02:08:26.708Z,13.30
2023-05-10T02:10:56.683Z,13.20
2023-05-10T02:13:25.321Z,13.20
2023-05-10T02:15:53.435Z,13.20
2023-05-10T02:18:25.094Z,13.30
2023-05-10T02:20:55.134Z,13.40
2023-05-10T02:23:24.213Z,13.30
2023-05-10T02:25:52.795Z,13.40
2023-05-10T02:28:23.541Z,13.30
2023-05-10T02:30:51.559Z,13.30
2023-05-10T02:33:19.553Z,13.40
2023-05-10T02:35:47.607Z,13.40
2023-05-10T02:38:16.512Z,13.30
2023-05-10T02:40:44.997Z,13.20
2023-05-10T02:43:15.497Z,13.20
2023-05-10T02:45:44.207Z,13.10
2023-05-10T02:48:11.352Z,13.20
2023-05-10T02:50:39.256Z,13.20
2023-05-10T02:53:17.675Z,13.20
2023-05-10T02:55:51.651Z,13.20
2023-05-10T02:58:22.382Z,13.20
2023-05-10T03:00:49.650Z,13.30
2023-05-10T03:03:16.627Z,13.50
2023-05-10T03:05:44.538Z,13.50
2023-05-10T03:08:11.918Z,13.50
2023-05-10T03:10:49.010Z,13.40
2023-05-10T03:13:43.297Z,13.30
2023-05-10T03:16:18.078Z,13.40
2023-05-10T03:19:31.413Z,13.50
2023-05-10T03:22:03.234Z,13.40
2023-05-10T03:24:36.411Z,13.30
2023-05-10T03:27:06.315Z,13.20
2023-05-10T03:29:34.160Z,13.20
2023-05-10T03:32:01.554Z,13.10
2023-05-10T03:34:33.466Z,13.00
2023-05-10T03:37:02.417Z,13.10
2023-05-10T03:39:31.833Z,13.00
2023-05-10T03:42:00.567Z,13.10
2023-05-10T03:44:28.547Z,13.00
2023-05-10T03:46:58.531Z,13.00
2023-05-10T03:49:29.927Z,13.10
2023-05-10T03:52:01.207Z,13.20
2023-05-10T03:54:35.410Z,13.30
2023-05-10T03:57:11.045Z,13.30
2023-05-10T03:59:46.531Z,13.40
2023-05-10T04:02:14.944Z,13.30
2023-05-10T04:04:43.111Z,13.40
2023-05-10T04:07:11.420Z,13.40
2023-05-10T04:10:10.560Z,13.40
2023-05-10T04:12:42.599Z,13.40
2023-05-10T04:15:10.145Z,13.50
2023-05-10T04:17:37.120Z,13.50
2023-05-10T04:20:08.541Z,13.40
2023-05-10T04:22:36.878Z,13.40
2023-05-10T04:25:03.957Z,13.40
2023-05-10T04:27:30.881Z,13.40
2023-05-10T04:29:58.611Z,13.40
2023-05-10T04:32:25.731Z,13.30
2023-05-10T04:34:54.061Z,13.30
2023-05-10T04:37:24.113Z,13.40
2023-05-10T04:39:51.197Z,13.40
2023-05-10T04:42:18.109Z,13.40
2023-05-10T04:44:47.112Z,13.40
2023-05-10T04:47:14.524Z,13.40
2023-05-10T04:49:45.011Z,13.40
2023-05-10T04:52:12.542Z,13.50
2023-05-10T04:54:39.499Z,13.50
2023-05-10T04:57:06.414Z,13.30
2023-05-10T04:59:33.414Z,13.30
2023-05-10T05:02:00.366Z,13.20
2023-05-10T05:04:28.324Z,13.20
2023-05-10T05:06:56.248Z,13.20
2023-05-10T05:09:23.089Z,13.30
2023-05-10T05:11:51.626Z,13.30
2023-05-10T05:14:26.281Z,13.40
2023-05-10T05:16:54.196Z,13.30
2023-05-10T05:19:22.514Z,13.30
2023-05-10T05:21:50.983Z,13.20
2023-05-10T05:24:18.132Z,13.20
2023-05-10T05:26:47.776Z,13.10
2023-05-10T05:29:15.738Z,13.00
2023-05-10T05:31:42.913Z,13.00
2023-05-10T05:34:11.078Z,13.00
2023-05-10T05:36:43.009Z,12.90
2023-05-10T05:39:10.432Z,12.80
2023-05-10T05:41:37.408Z,12.70
2023-05-10T05:44:04.300Z,12.60
2023-05-10T05:46:31.222Z,12.60
2023-05-10T05:48:58.303Z,12.70
2023-05-10T05:51:25.561Z,12.70
2023-05-10T05:53:52.541Z,12.70
2023-05-10T05:56:25.094Z,12.80
2023-05-10T05:58:52.676Z,12.80
2023-05-10T06:01:22.251Z,12.90
2023-05-10T06:03:50.932Z,13.00
2023-05-10T06:06:18.896Z,12.80
2023-05-10T06:08:45.964Z,12.80
2023-05-10T06:11:13.073Z,12.60
2023-05-10T06:13:39.981Z,12.60
2023-05-10T06:16:07.509Z,12.60
2023-05-10T06:18:35.715Z,12.60
2023-05-10T06:21:02.672Z,12.50
2023-05-10T06:23:29.813Z,12.40
2023-05-10T06:25:57.840Z,12.30
2023-05-10T06:28:25.020Z,12.40
2023-05-10T06:30:53.099Z,12.40
2023-05-10T06:33:20.070Z,12.40
2023-05-10T06:35:51.226Z,12.30
2023-05-10T06:38:18.855Z,12.20
2023-05-10T06:40:45.920Z,12.20
2023-05-10T06:43:12.978Z,12.20
2023-05-10T06:45:40.006Z,12.20
2023-05-10T06:48:07.260Z,12.30
2023-05-10T06:50:34.563Z,12.30
2023-05-10T06:53:02.776Z,12.30
2023-05-10T06:55:30.772Z,12.30
2023-05-10T06:57:57.836Z,12.30
2023-05-10T07:00:25.202Z,12.20
2023-05-10T07:02:56.036Z,12.20
2023-05-10T07:05:23.491Z,12.20
2023-05-10T07:08:02.073Z,12.20
2023-05-10T07:10:31.916Z,12.10
2023-05-10T07:13:02.468Z,12.10
2023-05-10T07:15:29.744Z,12.20
2023-05-10T07:18:07.657Z,12.20
2023-05-10T07:20:37.388Z,12.20
2023-05-10T07:23:04.411Z,12.20
2023-05-10T07:25:31.813Z,12.20
2023-05-10T07:28:02.075Z,12.20
2023-05-10T07:30:29.192Z,12.20
2023-05-10T07:32:56.471Z,12.30
2023-05-10T07:35:24.653Z,12.40
2023-05-10T07:37:51.533Z,12.50
2023-05-10T07:40:19.700Z,12.50
2023-05-10T07:42:46.693Z,12.50
2023-05-10T07:45:14.122Z,12.50
2023-05-10T07:47:41.379Z,12.40
2023-05-10T07:50:09.055Z,12.50
2023-05-10T07:52:36.123Z,12.60
2023-05-10T07:55:05.615Z,12.70
2023-05-10T07:57:38.665Z,12.60
2023-05-10T08:00:09.742Z,12.70
2023-05-10T08:02:42.961Z,12.70
2023-05-10T08:05:10.512Z,12.50
2023-05-10T08:07:37.511Z,12.60
2023-05-10T08:10:06.053Z,12.80
2023-05-10T08:12:32.983Z,12.90
2023-05-10T08:15:01.169Z,12.90
2023-05-10T08:17:29.111Z,12.90
2023-05-10T08:19:56.521Z,13.00
2023-05-10T08:22:23.467Z,13.00
2023-05-10T08:25:00.710Z,13.00
2023-05-10T08:27:56.614Z,12.90
2023-05-10T08:30:23.775Z,12.90
2023-05-10T08:33:21.168Z,13.00
2023-05-10T08:35:48.539Z,13.20
2023-05-10T08:38:15.745Z,13.40
2023-05-10T08:40:44.963Z,13.20
2023-05-10T08:43:16.471Z,13.50
2023-05-10T08:45:48.344Z,13.30
2023-05-10T08:48:16.356Z,13.20
2023-05-10T08:50:44.060Z,13.10
2023-05-10T08:53:14.135Z,13.30
2023-05-10T08:55:43.872Z,13.40
2023-05-10T08:58:11.084Z,13.30
2023-05-10T09:00:38.755Z,13.20
2023-05-10T09:03:07.324Z,13.30
2023-05-10T09:05:34.559Z,13.10
2023-05-10T09:08:01.609Z,12.90
2023-05-10T09:10:31.197Z,12.90
2023-05-10T09:12:59.636Z,12.70
2023-05-10T09:15:27.610Z,12.70
2023-05-10T09:17:56.086Z,12.70
2023-05-10T09:20:23.552Z,12.70
2023-05-10T09:22:50.620Z,12.80
2023-05-10T09:25:18.379Z,12.90
2023-05-10T09:27:48.024Z,13.00
2023-05-10T09:30:32.735Z,13.00
2023-05-10T09:33:00.762Z,12.80
2023-05-10T09:35:30.230Z,12.70
2023-05-10T09:38:01.979Z,12.80
2023-05-10T09:40:30.687Z,13.00
2023-05-10T09:43:08.027Z,13.20
2023-05-10T09:45:38.600Z,13.10
2023-05-10T09:48:07.166Z,13.00
2023-05-10T09:50:35.220Z,13.20
2023-05-10T09:53:04.461Z,13.10
2023-05-10T09:55:41.942Z,12.90
2023-05-10T09:58:12.658Z,12.80
2023-05-10T10:00:41.984Z,12.70
2023-05-10T10:03:15.280Z,12.70
2023-05-10T10:05:44.570Z,12.60
2023-05-10T10:08:13.032Z,12.50
2023-05-10T10:10:42.057Z,12.50
2023-05-10T10:13:09.283Z,12.50
2023-05-10T10:15:36.432Z,12.50
2023-05-10T10:18:07.314Z,12.60
2023-05-10T10:20:35.114Z,12.70
2023-05-10T10:23:01.964Z,12.70
2023-05-10T10:25:30.321Z,12.80
2023-05-10T10:27:59.895Z,12.90
2023-05-10T10:30:49.315Z,12.90
2023-05-10T10:33:49.686Z,13.00
2023-05-10T10:36:17.060Z,12.80
2023-05-10T10:38:50.127Z,12.90
2023-05-10T10:41:34.788Z,13.00
2023-05-10T10:44:26.938Z,13.10
2023-05-10T10:47:13.501Z,13.10
2023-05-10T10:49:49.972Z,13.00
2023-05-10T10:52:32.143Z,13.10
2023-05-10T10:55:13.211Z,13.20
2023-05-10T10:57:48.340Z,13.20
2023-05-10T11:00:24.662Z,13.40
2023-05-10T11:03:09.728Z,13.60
2023-05-10T11:05:46.542Z,13.60
2023-05-10T11:08:13.484Z,13.60
2023-05-10T11:10:41.371Z,13.80
2023-05-10T11:13:11.172Z,14.00
2023-05-10T11:15:40.462Z,14.10
2023-05-10T11:18:30.336Z,14.30
2023-05-10T11:21:06.017Z,14.40
2023-05-10T11:23:48.550Z,14.70
2023-05-10T11:26:17.979Z,15.00
2023-05-10T11:28:46.448Z,14.90
2023-05-10T11:31:21.134Z,15.10
2023-05-10T11:33:50.982Z,15.00
2023-05-10T11:36:25.394Z,15.00
2023-05-10T11:38:54.445Z,15.20
2023-05-10T11:41:22.971Z,15.40
2023-05-10T11:43:54.607Z,15.80
2023-05-10T11:46:24.276Z,16.10
2023-05-10T11:48:53.954Z,16.40
2023-05-10T11:51:22.385Z,16.30
2023-05-10T11:53:51.496Z,16.20
2023-05-10T11:56:21.730Z,16.10
2023-05-10T11:58:55.679Z,15.80
2023-05-10T12:01:25.214Z,15.60
2023-05-10T12:03:54.112Z,15.50
2023-05-10T12:06:23.059Z,15.50
2023-05-10T12:08:56.449Z,15.50
2023-05-10T12:11:27.378Z,15.50
2023-05-10T12:13:55.667Z,15.70
2023-05-10T12:16:29.817Z,16.00
2023-05-10T12:19:01.642Z,15.80
2023-05-10T12:21:32.436Z,15.90
2023-05-10T12:24:06.232Z,15.80
2023-05-10T12:26:33.712Z,16.30
2023-05-10T12:29:17.556Z,16.80
2023-05-10T12:31:59.752Z,17.10
2023-05-10T12:34:39.469Z,17.20
2023-05-10T12:37:06.728Z,17.20
2023-05-10T12:39:44.676Z,17.50
2023-05-10T12:42:13.951Z,17.90
2023-05-10T12:44:41.120Z,17.80
2023-05-10T12:47:08.323Z,17.00
2023-05-10T12:49:35.426Z,16.70
2023-05-10T12:52:03.443Z,16.80
2023-05-10T12:54:32.584Z,16.30
2023-05-10T12:56:59.720Z,16.30
2023-05-10T12:59:26.698Z,16.70
2023-05-10T13:01:53.774Z,17.10
2023-05-10T13:04:21.021Z,17.10
2023-05-10T13:06:48.233Z,16.90
2023-05-10T13:09:15.240Z,16.50
2023-05-10T13:11:42.492Z,16.60
2023-05-10T13:14:09.738Z,16.90
2023-05-10T13:16:38.803Z,17.00
2023-05-10T13:19:07.306Z,17.10
2023-05-10T13:21:34.271Z,17.30
2023-05-10T13:24:02.353Z,17.20
2023-05-10T13:26:29.897Z,17.00
2023-05-10T13:28:56.992Z,17.20
2023-05-10T13:31:26.289Z,17.30
2023-05-10T13:34:04.235Z,17.60
2023-05-10T13:40:01.809Z,17.70
2023-05-10T13:42:29.406Z,17.20
2023-05-10T13:45:00.857Z,17.20
2023-05-10T13:47:31.599Z,17.20
2023-05-10T13:50:06.893Z,17.30
2023-05-10T13:52:39.445Z,17.30
2023-05-10T13:55:07.042Z,17.40
2023-05-10T13:57:35.500Z,17.60
2023-05-10T14:00:02.986Z,17.90
2023-05-10T14:02:35.021Z,17.70
2023-05-10T14:05:05.355Z,17.50
2023-05-10T14:07:32.553Z,17.30
2023-05-10T14:10:01.015Z,17.00
2023-05-10T14:12:28.686Z,16.70
2023-05-10T14:14:55.813Z,16.60
2023-05-10T14:17:26.315Z,16.70
2023-05-10T14:19:55.415Z,16.90
2023-05-10T14:22:22.471Z,16.70
2023-05-10T14:24:49.874Z,16.70
2023-05-10T14:27:17.839Z,17.00
2023-05-10T14:29:44.964Z,17.60
2023-05-10T14:32:12.100Z,17.90
2023-05-10T14:34:39.350Z,18.20
2023-05-10T14:37:06.802Z,18.30
2023-05-10T14:39:59.503Z,18.20
2023-05-10T14:42:26.721Z,18.20
2023-05-10T14:44:54.817Z,17.90
2023-05-10T14:47:22.926Z,17.90
2023-05-10T14:49:49.825Z,17.90
2023-05-10T14:52:18.438Z,17.70
2023-05-10T14:54:49.366Z,17.80
2023-05-10T14:57:17.357Z,17.80
2023-05-10T14:59:45.715Z,17.90
2023-05-10T15:02:14.932Z,17.90
2023-05-10T15:04:49.066Z,17.80
2023-05-10T15:07:17.388Z,17.80
2023-05-10T15:09:45.464Z,17.50
2023-05-10T15:12:15.632Z,16.80
2023-05-10T15:14:43.716Z,16.60
2023-05-10T15:17:11.649Z,16.60
2023-05-10T15:19:38.646Z,16.60
2023-05-10T15:22:06.797Z,16.40
2023-05-10T15:24:36.074Z,16.30
2023-05-10T15:27:03.234Z,16.20
2023-05-10T15:29:30.688Z,16.00
2023-05-10T15:31:57.672Z,15.90
2023-05-10T15:34:24.973Z,15.70
2023-05-10T15:36:55.710Z,15.80
2023-05-10T15:39:27.261Z,15.80
2023-05-10T15:41:56.578Z,15.80
2023-05-10T15:44:23.528Z,16.00
2023-05-10T15:46:52.911Z,16.10
2023-05-10T15:49:20.014Z,16.30
2023-05-10T15:51:47.204Z,16.50
2023-05-10T15:54:16.516Z,16.70
2023-05-10T15:56:43.505Z,16.90
2023-05-10T15:59:12.005Z,16.80
2023-05-10T16:01:38.997Z,16.70
2023-05-10T16:04:06.268Z,16.70
2023-05-10T16:06:34.256Z,16.90
2023-05-10T16:09:01.888Z,17.10
2023-05-10T16:11:32.050Z,17.30
2023-05-10T16:14:07.078Z,17.30
2023-05-10T16:16:40.058Z,17.50
2023-05-10T16:19:07.654Z,17.60
2023-05-10T16:21:34.692Z,17.60
2023-05-10T16:24:06.746Z,17.70
2023-05-10T16:26:41.687Z,17.70
2023-05-10T16:29:09.549Z,17.60
2023-05-10T16:31:36.844Z,17.70
2023-05-10T16:34:03.914Z,17.90
2023-05-10T16:36:31.655Z,17.90
2023-05-10T16:39:00.298Z,17.80
2023-05-10T16:41:52.262Z,17.70
2023-05-10T16:44:26.166Z,17.70
2023-05-10T16:46:55.929Z,17.70
2023-05-10T16:49:26.215Z,17.70
2023-05-10T16:51:56.710Z,17.40
2023-05-10T16:54:27.422Z,17.40
2023-05-10T16:56:57.545Z,17.50
2023-05-10T16:59:27.822Z,17.40
2023-05-10T17:01:55.848Z,17.40
2023-05-10T17:04:23.362Z,17.40
2023-05-10T17:06:50.724Z,17.30
2023-05-10T17:09:20.209Z,17.40
2023-05-10T17:11:47.125Z,17.50
2023-05-10T17:14:14.087Z,17.30
2023-05-10T17:16:44.301Z,17.40
2023-05-10T17:19:11.609Z,17.30
2023-05-10T17:21:38.618Z,17.00
2023-05-10T17:24:05.807Z,17.20
2023-05-10T17:26:34.938Z,17.30
2023-05-10T17:29:04.909Z,17.30
2023-05-10T17:31:35.360Z,17.20
2023-05-10T17:34:05.689Z,17.30
2023-05-10T17:36:33.598Z,17.30
2023-05-10T17:39:01.024Z,17.40
2023-05-10T17:41:28.568Z,17.30
2023-05-10T17:43:55.577Z,17.30
2023-05-10T17:46:22.840Z,17.20
2023-05-10T17:48:50.767Z,17.20
2023-05-10T17:51:18.956Z,17.00
2023-05-10T17:53:46.102Z,16.90
2023-05-10T17:56:13.136Z,16.80
2023-05-10T17:58:40.302Z,16.80
2023-05-10T18:01:09.260Z,16.70
2023-05-10T18:03:36.344Z,16.70
2023-05-10T18:06:04.652Z,16.60
2023-05-10T18:08:34.061Z,16.60
2023-05-10T18:11:01.359Z,16.40
2023-05-10T18:13:28.704Z,16.30
2023-05-10T18:15:59.348Z,16.20
2023-05-10T18:18:29.239Z,16.20
2023-05-10T18:21:00.943Z,16.10
2023-05-10T18:23:29.072Z,16.10
2023-05-10T18:30:03.247Z,15.80
2023-05-10T18:32:41.787Z,15.60
2023-05-10T18:35:41.066Z,15.60
2023-05-10T18:38:12.746Z,15.80
2023-05-10T18:40:44.548Z,15.80
2023-05-10T18:43:19.676Z,15.70
2023-05-10T18:45:47.164Z,15.60
2023-05-10T18:48:16.255Z,15.60
2023-05-10T18:50:45.008Z,15.60
2023-05-10T18:53:23.802Z,15.70
2023-05-10T18:56:00.004Z,15.60
2023-05-10T18:58:35.728Z,15.50
2023-05-10T19:01:05.516Z,15.60
2023-05-10T19:03:34.539Z,15.50
2023-05-10T19:06:09.493Z,15.60
2023-05-10T19:08:39.360Z,15.60
2023-05-10T19:11:06.987Z,15.50
2023-05-10T19:13:38.670Z,15.40
2023-05-10T19:16:16.990Z,15.50
2023-05-10T19:18:49.989Z,15.50
2023-05-10T19:21:21.171Z,15.40
2023-05-10T19:23:52.828Z,15.40
2023-05-10T19:26:21.731Z,15.40
2023-05-10T19:28:52.722Z,15.40
2023-05-10T19:31:22.619Z,15.30
2023-05-10T19:33:53.862Z,15.30
2023-05-10T19:36:21.871Z,15.40
2023-05-10T19:38:49.107Z,15.30
2023-05-10T19:41:16.260Z,15.30
2023-05-10T19:43:43.768Z,15.20
2023-05-10T19:46:12.853Z,15.30
2023-05-10T19:48:47.626Z,15.40
2023-05-10T19:51:28.309Z,15.40
2023-05-10T19:53:58.420Z,15.40
2023-05-10T19:56:27.179Z,15.40
2023-05-10T19:58:56.238Z,15.40
2023-05-10T20:01:25.578Z,15.50
2023-05-10T20:03:58.441Z,15.40
2023-05-10T20:11:21.722Z,15.40
2023-05-10T20:13:56.984Z,15.50
2023-05-10T20:16:26.589Z,15.50
2023-05-10T20:18:55.592Z,15.50
2023-05-10T20:21:23.933Z,15.50
2023-05-10T20:23:50.949Z,15.60
2023-05-10T20:26:18.507Z,15.60
2023-05-10T20:28:48.148Z,15.50
2023-05-10T20:31:18.537Z,15.60
2023-05-10T20:33:48.093Z,15.60
2023-05-10T20:36:16.800Z,15.50
2023-05-10T20:38:48.606Z,15.40
2023-05-10T20:41:18.169Z,15.40
2023-05-10T20:43:45.155Z,15.20
2023-05-10T20:46:12.464Z,15.10
2023-05-10T20:48:40.066Z,15.10
2023-05-10T20:51:07.023Z,15.00
2023-05-10T20:53:37.118Z,14.80
2023-05-10T20:56:04.629Z,14.70
2023-05-10T20:58:31.547Z,14.50
2023-05-10T21:00:58.495Z,14.30
2023-05-10T21:03:25.390Z,14.10
2023-05-10T21:05:53.368Z,14.00
2023-05-10T21:08:20.355Z,14.00
2023-05-10T21:10:47.446Z,14.00
2023-05-10T21:13:18.237Z,14.00
2023-05-10T21:15:46.146Z,13.90
2023-05-10T21:18:14.194Z,13.90
2023-05-10T21:20:44.010Z,14.00
2023-05-10T21:23:12.919Z,14.10
2023-05-10T21:25:42.934Z,14.00
2023-05-10T21:28:11.544Z,13.90
2023-05-10T21:30:38.505Z,14.00
2023-05-10T21:33:05.419Z,14.10
2023-05-10T21:35:32.972Z,14.10
2023-05-10T21:37:59.899Z,14.20
2023-05-10T21:40:28.495Z,14.20
2023-05-10T21:42:55.356Z,14.20
2023-05-10T21:45:22.284Z,14.10
2023-05-10T21:47:49.469Z,14.10
2023-05-10T21:50:17.149Z,14.10
2023-05-10T21:52:45.330Z,14.10
2023-05-10T21:55:12.232Z,14.00
2023-05-10T21:57:39.133Z,14.10
2023-05-10T22:00:11.834Z,14.10
2023-05-10T22:02:40.101Z,14.10
2023-05-10T22:05:08.712Z,14.00
2023-05-10T22:07:36.892Z,14.00
2023-05-10T22:10:05.989Z,13.90
2023-05-10T22:12:32.929Z,13.80
2023-05-10T22:15:10.349Z,13.70
2023-05-10T22:17:39.553Z,13.60
2023-05-10T22:20:08.918Z,13.60
2023-05-10T22:22:37.997Z,13.60
2023-05-10T22:25:07.427Z,13.60
2023-05-10T22:27:39.007Z,13.50
2023-05-10T22:30:08.728Z,13.40
2023-05-10T22:32:36.823Z,13.40
2023-05-10T22:35:04.419Z,13.50
2023-05-10T22:37:33.698Z,13.50
2023-05-10T22:40:00.898Z,13.50
2023-05-10T22:42:27.786Z,13.50
2023-05-10T22:44:55.238Z,13.50
2023-05-10T22:47:28.782Z,13.50
2023-05-10T22:49:59.658Z,13.40
2023-05-10T22:52:33.388Z,13.30
2023-05-10T22:55:04.576Z,13.30
2023-05-10T22:57:37.689Z,13.20
2023-05-10T23:00:18.510Z,13.20
2023-05-10T23:02:46.574Z,13.20
2023-05-10T23:05:17.624Z,13.20
2023-05-10T23:07:45.569Z,13.20
2023-05-10T23:10:13.130Z,13.10
2023-05-10T23:12:40.530Z,13.10
2023-05-10T23:15:07.868Z,13.00
2023-05-10T23:17:34.834Z,13.00
2023-05-10T23:20:05.869Z,13.00
2023-05-10T23:22:33.848Z,13.00
2023-05-10T23:25:01.117Z,13.10
2023-05-10T23:27:31.224Z,13.00
2023-05-10T23:30:06.730Z,13.10
2023-05-10T23:32:33.700Z,13.00
2023-05-10T23:35:03.080Z,13.00
2023-05-10T23:37:31.342Z,12.90
2023-05-10T23:39:58.289Z,12.90
2023-05-10T23:42:32.844Z,13.00
2023-05-10T23:44:59.777Z,13.00
2023-05-10T23:47:26.889Z,13.00
2023-05-10T23:49:55.289Z,12.90
2023-05-10T23:52:27.146Z,12.90
2023-05-10T23:54:55.054Z,12.90
2023-05-10T23:57:24.818Z,12.90
2023-05-10T23:59:52.811Z,12.80
